createdAt,value
2022-09-01T00:00:14.482Z,58.10
2022-09-01T00:03:01.142Z,58.00
2022-09-01T00:05:32.329Z,58.00
2022-09-01T00:08:02.032Z,57.88
2022-09-01T00:10:29.406Z,57.65
2022-09-01T00:12:56.763Z,57.67
2022-09-01T00:15:25.163Z,57.96
2022-09-01T00:17:52.446Z,57.91
2022-09-01T00:20:20.949Z,58.32
2022-09-01T00:22:48.932Z,58.07
2022-09-01T00:25:19.525Z,58.25
2022-09-01T00:27:49.076Z,58.40
2022-09-01T00:30:16.670Z,58.46
2022-09-01T00:32:46.384Z,58.43
2022-09-01T00:35:18.917Z,58.51
2022-09-01T00:37:46.469Z,58.72
2022-09-01T00:40:16.748Z,58.88
2022-09-01T00:42:44.589Z,59.08
2022-09-01T00:45:13.661Z,59.30
2022-09-01T00:47:41.772Z,59.41
2022-09-01T00:50:12.731Z,59.42
2022-09-01T00:52:50.506Z,59.06
2022-09-01T00:55:25.648Z,59.10
2022-09-01T00:57:53.311Z,59.20
2022-09-01T01:00:28.682Z,59.12
2022-09-01T01:02:57.064Z,59.19
2022-09-01T01:05:32.620Z,59.34
2022-09-01T01:08:02.191Z,59.21
2022-09-01T01:10:32.560Z,58.99
2022-09-01T01:13:08.395Z,59.12
2022-09-01T01:15:36.552Z,59.57
2022-09-01T01:18:04.308Z,59.96
2022-09-01T01:20:52.925Z,60.71
2022-09-01T01:23:48.369Z,61.16
2022-09-01T01:26:15.824Z,61.90
2022-09-01T01:28:44.805Z,61.79
2022-09-01T01:31:22.535Z,62.08
2022-09-01T01:33:53.727Z,61.88
2022-09-01T01:36:33.381Z,61.83
2022-09-01T01:39:11.889Z,61.86
2022-09-01T01:41:43.791Z,62.03
2022-09-01T01:44:17.924Z,62.12
2022-09-01T01:46:52.288Z,62.19
2022-09-01T01:49:24.362Z,62.13
2022-09-01T01:51:55.570Z,62.81
2022-09-01T01:54:26.627Z,62.80
2022-09-01T01:56:55.221Z,62.94
2022-09-01T01:59:24.350Z,62.97
2022-09-01T02:01:52.712Z,63.20
2022-09-01T02:04:21.037Z,63.64
2022-09-01T02:06:49.764Z,63.80
2022-09-01T02:09:20.302Z,64.16
2022-09-01T02:11:48.850Z,63.89
2022-09-01T02:14:20.086Z,64.08
2022-09-01T02:16:47.697Z,64.02
2022-09-01T02:19:19.163Z,64.64
2022-09-01T02:21:55.440Z,64.84
2022-09-01T02:24:28.546Z,64.67
2022-09-01T02:26:58.835Z,64.60
2022-09-01T02:29:28.352Z,64.94
2022-09-01T02:31:56.968Z,65.05
2022-09-01T02:34:28.588Z,65.08
2022-09-01T02:36:57.025Z,65.07
2022-09-01T02:39:33.077Z,65.16
2022-09-01T02:42:04.156Z,65.02
2022-09-01T02:44:32.293Z,65.22
2022-09-01T02:47:01.263Z,65.97
2022-09-01T02:49:29.412Z,65.89
2022-09-01T02:52:00.816Z,65.50
2022-09-01T02:54:30.437Z,65.76
2022-09-01T02:56:57.939Z,66.48
2022-09-01T02:59:28.500Z,66.67
2022-09-01T03:01:59.394Z,66.97
2022-09-01T03:04:26.862Z,67.12
2022-09-01T03:06:58.386Z,67.34
2022-09-01T03:09:25.868Z,67.10
2022-09-01T03:11:54.135Z,67.04
2022-09-01T03:14:23.794Z,67.39
2022-09-01T03:16:51.959Z,67.21
2022-09-01T03:19:20.042Z,66.96
2022-09-01T03:21:48.330Z,66.46
2022-09-01T03:24:18.714Z,66.72
2022-09-01T03:26:49.946Z,67.06
2022-09-01T03:29:18.992Z,67.30
2022-09-01T03:31:47.072Z,67.11
2022-09-01T03:34:21.289Z,67.10
2022-09-01T03:36:51.148Z,66.94
2022-09-01T03:39:26.630Z,67.02
2022-09-01T03:41:54.903Z,67.28
2022-09-01T03:44:22.298Z,67.28
2022-09-01T03:46:50.237Z,66.78
2022-09-01T03:49:24.652Z,66.67
2022-09-01T03:51:56.036Z,66.83
2022-09-01T03:54:27.518Z,66.64
2022-09-01T03:56:55.010Z,66.65
2022-09-01T03:59:24.790Z,66.57
2022-09-01T04:01:52.490Z,66.68
2022-09-01T04:04:20.534Z,66.68
2022-09-01T04:06:48.734Z,66.70
2022-09-01T04:09:16.310Z,66.69
2022-09-01T04:11:48.044Z,66.42
2022-09-01T04:14:16.759Z,66.56
2022-09-01T04:17:04.423Z,66.97
2022-09-01T04:19:38.950Z,66.93
2022-09-01T04:22:07.583Z,67.37
2022-09-01T04:24:45.295Z,67.24
2022-09-01T04:27:14.420Z,67.00
2022-09-01T04:29:42.737Z,66.72
2022-09-01T04:32:15.396Z,66.76
2022-09-01T04:34:45.378Z,66.69
2022-09-01T04:37:21.620Z,66.23
2022-09-01T04:39:59.002Z,66.25
2022-09-01T04:42:31.416Z,66.07
2022-09-01T04:45:05.095Z,65.75
2022-09-01T04:47:41.760Z,65.55
2022-09-01T04:50:14.384Z,65.57
2022-09-01T04:52:47.283Z,65.51
2022-09-01T04:55:29.716Z,65.72
2022-09-01T04:58:03.162Z,65.85
2022-09-01T05:00:33.106Z,66.12
2022-09-01T05:03:04.063Z,65.93
2022-09-01T05:05:50.439Z,65.81
2022-09-01T05:08:23.370Z,65.72
2022-09-01T05:10:54.608Z,65.64
2022-09-01T05:13:33.501Z,65.58
2022-09-01T05:16:12.374Z,65.90
2022-09-01T05:18:47.235Z,65.70
2022-09-01T05:21:21.718Z,65.56
2022-09-01T05:23:51.297Z,65.53
2022-09-01T05:26:26.151Z,65.51
2022-09-01T05:29:00.861Z,65.25
2022-09-01T05:31:34.363Z,65.35
2022-09-01T05:34:02.894Z,65.17
2022-09-01T05:36:33.975Z,65.00
2022-09-01T05:39:05.897Z,64.85
2022-09-01T05:41:35.206Z,64.14
2022-09-01T05:44:06.657Z,64.21
2022-09-01T05:46:37.887Z,63.78
2022-09-01T05:49:13.763Z,63.02
2022-09-01T05:51:52.699Z,62.81
2022-09-01T05:54:25.633Z,62.45
2022-09-01T05:57:08.126Z,62.16
2022-09-01T05:59:53.269Z,62.22
2022-09-01T06:02:23.638Z,62.13
2022-09-01T06:04:56.861Z,62.16
2022-09-01T06:07:28.142Z,61.73
2022-09-01T06:09:56.645Z,61.44
2022-09-01T06:12:25.064Z,61.05
2022-09-01T06:14:54.566Z,61.76
2022-09-01T06:17:25.532Z,61.62
2022-09-01T06:19:58.136Z,61.61
2022-09-01T06:22:28.388Z,61.75
2022-09-01T06:25:01.122Z,62.25
2022-09-01T06:27:42.201Z,61.99
2022-09-01T06:30:23.510Z,61.18
2022-09-01T06:33:01.903Z,59.74
2022-09-01T06:35:30.059Z,59.20
2022-09-01T06:37:58.336Z,59.15
2022-09-01T06:40:42.454Z,59.25
2022-09-01T06:43:13.731Z,58.06
2022-09-01T06:45:54.157Z,57.76
2022-09-01T06:48:23.277Z,57.97
2022-09-01T06:53:44.919Z,58.09
2022-09-01T06:56:16.371Z,57.66
2022-09-01T06:58:48.859Z,57.16
2022-09-01T07:01:19.247Z,57.10
2022-09-01T07:03:51.659Z,56.88
2022-09-01T07:13:06.877Z,55.02
2022-09-01T07:18:30.551Z,54.59
2022-09-01T07:21:05.461Z,54.54
2022-09-01T07:26:28.248Z,55.37
2022-09-01T07:29:01.292Z,55.20
2022-09-01T07:34:41.928Z,55.11
2022-09-01T07:42:31.191Z,56.93
2022-09-01T07:43:24.103Z,55.09
2022-09-01T07:47:19.619Z,54.31
2022-09-01T07:52:35.557Z,54.61
2022-09-01T07:55:04.257Z,53.76
2022-09-01T07:57:34.394Z,53.15
2022-09-01T08:00:06.243Z,53.68
2022-09-01T08:02:46.722Z,53.37
2022-09-01T08:05:22.337Z,53.67
2022-09-01T08:07:52.752Z,54.09
2022-09-01T08:10:33.586Z,54.13
2022-09-01T08:13:02.095Z,53.60
2022-09-01T08:18:51.338Z,53.98
2022-09-01T08:21:28.923Z,53.73
2022-09-01T08:24:03.226Z,53.81
2022-09-01T08:26:34.033Z,53.76
2022-09-01T08:29:03.952Z,53.58
2022-09-01T08:31:37.930Z,53.39
2022-09-01T08:34:05.762Z,53.83
2022-09-01T08:36:35.427Z,53.41
2022-09-01T08:39:03.628Z,53.78
2022-09-01T08:41:52.159Z,52.91
2022-09-01T08:44:28.877Z,52.21
2022-09-01T08:47:13.687Z,52.63
2022-09-01T08:49:46.590Z,52.32
2022-09-01T08:52:50.084Z,52.57
2022-09-01T08:55:38.303Z,51.93
2022-09-01T08:58:06.673Z,51.60
2022-09-01T09:01:00.765Z,51.87
2022-09-01T09:03:59.395Z,51.81
2022-09-01T09:06:41.406Z,51.65
2022-09-01T09:09:10.004Z,51.71
2022-09-01T09:12:16.413Z,50.79
2022-09-01T09:15:32.975Z,51.06
2022-09-01T09:18:38.438Z,50.23
2022-09-01T09:21:20.941Z,50.47
2022-09-01T09:24:10.416Z,50.39
2022-09-01T09:26:45.027Z,50.93
2022-09-01T09:29:13.006Z,50.74
2022-09-01T09:31:50.045Z,49.51
2022-09-01T09:34:35.902Z,48.69
2022-09-01T09:37:22.135Z,48.78
2022-09-01T09:40:21.123Z,48.78
2022-09-01T09:42:54.734Z,48.88
2022-09-01T09:45:34.008Z,47.49
2022-09-01T09:48:30.319Z,44.83
2022-09-01T09:51:20.745Z,43.97
2022-09-01T09:53:50.075Z,43.08
2022-09-01T09:56:24.064Z,44.10
2022-09-01T09:58:52.940Z,41.18
2022-09-01T10:01:24.150Z,39.81
2022-09-01T10:04:01.249Z,40.06
2022-09-01T10:06:50.322Z,40.33
2022-09-01T10:09:24.378Z,41.82
2022-09-01T10:11:55.631Z,41.57
2022-09-01T10:14:53.336Z,39.69
2022-09-01T10:17:30.486Z,39.47
2022-09-01T10:20:07.690Z,40.65
2022-09-01T10:22:50.736Z,41.21
2022-09-01T10:25:24.232Z,41.98
2022-09-01T10:28:13.173Z,40.15
2022-09-01T10:30:45.578Z,39.29
2022-09-01T10:33:20.835Z,39.00
2022-09-01T10:35:53.183Z,39.41
2022-09-01T10:38:28.828Z,40.04
2022-09-01T10:41:09.008Z,39.91
2022-09-01T10:43:45.375Z,40.52
2022-09-01T10:46:42.173Z,40.47
2022-09-01T10:49:29.659Z,40.36
2022-09-01T10:52:03.243Z,39.67
2022-09-01T10:54:51.079Z,39.74
2022-09-01T10:57:30.620Z,40.50
2022-09-01T11:00:38.697Z,40.57
2022-09-01T11:06:12.641Z,39.97
2022-09-01T11:08:58.476Z,40.29
2022-09-01T11:11:49.303Z,39.95
2022-09-01T11:14:26.411Z,40.53
2022-09-01T11:17:20.721Z,40.26
2022-09-01T11:20:00.410Z,39.28
2022-09-01T11:22:44.774Z,39.60
2022-09-01T11:25:38.702Z,38.97
2022-09-01T11:28:18.151Z,39.35
2022-09-01T11:31:05.888Z,39.88
2022-09-01T11:33:56.230Z,39.46
2022-09-01T11:36:29.576Z,39.63
2022-09-01T11:39:22.783Z,39.11
2022-09-01T11:42:04.725Z,38.71
2022-09-01T11:44:51.151Z,38.54
2022-09-01T11:47:40.088Z,38.76
2022-09-01T11:50:17.402Z,38.84
2022-09-01T11:53:07.973Z,39.10
2022-09-01T11:56:04.508Z,39.50
2022-09-01T11:58:38.792Z,39.18
2022-09-01T12:01:31.202Z,38.62
2022-09-01T12:04:19.677Z,38.77
2022-09-01T12:06:58.259Z,37.96
2022-09-01T12:09:42.826Z,38.61
2022-09-01T12:12:49.597Z,38.62
2022-09-01T12:15:26.952Z,38.45
2022-09-01T12:18:18.816Z,39.10
2022-09-01T12:23:39.942Z,38.79
2022-09-01T12:26:14.620Z,38.91
2022-09-01T12:28:42.614Z,37.78
2022-09-01T12:31:16.949Z,37.14
2022-09-01T12:33:45.473Z,37.37
2022-09-01T12:36:24.377Z,37.21
2022-09-01T12:38:55.574Z,37.43
2022-09-01T12:41:41.534Z,37.68
2022-09-01T12:44:39.788Z,38.03
2022-09-01T12:47:14.293Z,37.60
2022-09-01T12:49:50.789Z,38.13
2022-09-01T12:52:36.647Z,37.98
2022-09-01T12:55:05.880Z,37.80
2022-09-01T12:57:39.995Z,37.45
2022-09-01T13:00:21.844Z,37.82
2022-09-01T13:02:52.724Z,37.66
2022-09-01T13:05:41.709Z,38.01
2022-09-01T13:08:10.519Z,38.23
2022-09-01T13:10:48.866Z,38.04
2022-09-01T13:13:17.501Z,37.98
2022-09-01T13:15:51.255Z,37.44
2022-09-01T13:18:22.193Z,37.44
2022-09-01T13:20:51.152Z,37.12
2022-09-01T13:23:20.480Z,36.60
2022-09-01T13:25:48.534Z,36.58
2022-09-01T13:28:17.623Z,36.88
2022-09-01T13:31:28.327Z,37.08
2022-09-01T13:36:44.457Z,36.52
2022-09-01T13:39:15.449Z,36.13
2022-09-01T13:41:43.306Z,36.23
2022-09-01T13:44:11.142Z,36.52
2022-09-01T13:46:59.093Z,36.76
2022-09-01T13:49:43.517Z,37.27
2022-09-01T13:52:12.672Z,37.19
2022-09-01T13:54:40.159Z,36.74
2022-09-01T13:57:07.608Z,36.71
2022-09-01T13:59:35.050Z,37.16
2022-09-01T14:02:02.898Z,37.11
2022-09-01T14:04:30.457Z,37.43
2022-09-01T14:06:59.203Z,37.55
2022-09-01T14:09:26.738Z,37.34
2022-09-01T14:11:55.107Z,37.44
2022-09-01T14:14:23.101Z,37.51
2022-09-01T14:16:50.502Z,37.51
2022-09-01T14:19:18.520Z,37.70
2022-09-01T14:21:46.984Z,37.54
2022-09-01T14:24:18.576Z,37.53
2022-09-01T14:26:47.430Z,37.66
2022-09-01T14:29:16.193Z,37.41
2022-09-01T14:31:44.621Z,37.40
2022-09-01T14:34:12.595Z,37.83
2022-09-01T14:36:45.036Z,38.07
2022-09-01T14:39:15.763Z,37.73
2022-09-01T14:41:43.515Z,37.73
2022-09-01T14:44:11.099Z,37.61
2022-09-01T14:46:39.389Z,37.50
2022-09-01T14:49:07.508Z,37.56
2022-09-01T14:54:26.007Z,37.65
2022-09-01T14:59:41.475Z,37.70
2022-09-01T15:02:10.118Z,37.64
2022-09-01T15:04:37.631Z,37.49
2022-09-01T15:07:05.987Z,37.47
2022-09-01T15:09:33.945Z,37.44
2022-09-01T15:12:01.585Z,37.71
2022-09-01T15:14:29.227Z,37.74
2022-09-01T15:16:57.127Z,37.73
2022-09-01T15:19:29.573Z,37.89
2022-09-01T15:22:00.680Z,37.73
2022-09-01T15:24:28.177Z,38.23
2022-09-01T15:26:56.255Z,38.26
2022-09-01T15:29:24.170Z,38.50
2022-09-01T15:31:53.460Z,38.60
2022-09-01T15:34:20.803Z,38.72
2022-09-01T15:36:48.059Z,38.91
2022-09-01T15:39:15.573Z,38.88
2022-09-01T15:41:43.888Z,38.88
2022-09-01T15:44:11.291Z,39.01
2022-09-01T15:46:40.176Z,38.88
2022-09-01T15:49:10.270Z,38.99
2022-09-01T15:51:41.762Z,39.09
2022-09-01T15:54:18.962Z,39.00
2022-09-01T15:56:47.522Z,39.09
2022-09-01T15:59:15.716Z,39.27
2022-09-01T16:01:45.683Z,39.46
2022-09-01T16:04:19.944Z,39.42
2022-09-01T16:06:50.653Z,39.51
2022-09-01T16:09:20.806Z,39.10
2022-09-01T16:11:48.295Z,39.00
2022-09-01T16:14:15.981Z,39.16
2022-09-01T16:17:04.475Z,39.00
2022-09-01T16:19:53.748Z,39.11
2022-09-01T16:22:57.629Z,38.80
2022-09-01T16:25:31.697Z,38.71
2022-09-01T16:28:10.736Z,38.68
2022-09-01T16:30:40.281Z,38.90
2022-09-01T16:33:19.536Z,38.96
2022-09-01T16:36:28.484Z,38.93
2022-09-01T16:39:26.252Z,39.05
2022-09-01T16:42:48.365Z,39.46
2022-09-01T16:45:48.899Z,39.11
2022-09-01T16:48:46.759Z,39.32
2022-09-01T16:51:35.817Z,39.25
2022-09-01T16:54:54.142Z,39.17
2022-09-01T16:58:04.462Z,39.41
2022-09-01T17:01:38.982Z,39.32
2022-09-01T17:04:59.895Z,39.49
2022-09-01T17:07:37.758Z,39.56
2022-09-01T17:10:33.328Z,39.61
2022-09-01T17:13:48.965Z,39.60
2022-09-01T17:16:41.796Z,39.75
2022-09-01T17:19:17.184Z,39.91
2022-09-01T17:22:08.796Z,39.77
2022-09-01T17:24:43.930Z,39.93
2022-09-01T17:27:19.821Z,40.01
2022-09-01T17:29:53.473Z,39.89
2022-09-01T17:33:17.320Z,40.13
2022-09-01T17:36:18.269Z,40.12
2022-09-01T17:39:48.908Z,39.91
2022-09-01T17:43:29.009Z,39.52
2022-09-01T17:46:42.325Z,39.01
2022-09-01T17:50:05.483Z,38.88
2022-09-01T17:53:10.547Z,38.64
2022-09-01T17:55:51.160Z,38.68
2022-09-01T17:58:47.935Z,38.62
2022-09-01T18:01:27.960Z,38.36
2022-09-01T18:04:47.525Z,38.12
2022-09-01T18:07:31.542Z,38.09
2022-09-01T18:10:02.089Z,38.02
2022-09-01T18:12:35.278Z,38.15
2022-09-01T18:15:14.186Z,38.56
2022-09-01T18:17:49.576Z,38.23
2022-09-01T18:20:25.301Z,38.39
2022-09-01T18:22:58.625Z,38.35
2022-09-01T18:25:48.048Z,38.50
2022-09-01T18:28:16.448Z,38.52
2022-09-01T18:31:30.521Z,38.55
2022-09-01T18:34:10.987Z,38.52
2022-09-01T18:37:14.114Z,38.64
2022-09-01T18:40:00.008Z,38.35
2022-09-01T18:43:26.078Z,38.32
2022-09-01T18:46:03.733Z,38.52
2022-09-01T18:48:49.694Z,38.65
2022-09-01T18:51:29.599Z,38.77
2022-09-01T18:54:28.797Z,38.89
2022-09-01T18:57:03.540Z,38.98
2022-09-01T18:59:45.544Z,39.04
2022-09-01T19:02:37.944Z,39.09
2022-09-01T19:05:20.148Z,39.24
2022-09-01T19:08:08.079Z,39.17
2022-09-01T19:10:47.480Z,39.51
2022-09-01T19:13:55.499Z,39.38
2022-09-01T19:16:32.854Z,39.67
2022-09-01T19:19:24.765Z,39.94
2022-09-01T19:21:55.414Z,39.89
2022-09-01T19:24:44.651Z,40.05
2022-09-01T19:27:34.596Z,40.08
2022-09-01T19:30:06.348Z,40.24
2022-09-01T19:32:35.760Z,40.37
2022-09-01T19:35:13.223Z,40.62
2022-09-01T19:37:43.653Z,40.90
2022-09-01T19:40:11.989Z,41.00
2022-09-01T19:42:43.897Z,41.02
2022-09-01T19:45:40.709Z,41.25
2022-09-01T19:48:23.742Z,41.50
2022-09-01T19:51:02.564Z,41.39
2022-09-01T19:53:50.174Z,41.45
2022-09-01T19:56:31.387Z,41.40
2022-09-01T20:00:06.562Z,41.51
2022-09-01T20:02:54.670Z,41.58
2022-09-01T20:05:31.849Z,41.68
2022-09-01T20:08:11.773Z,42.00
2022-09-01T20:11:00.886Z,42.22
2022-09-01T20:14:12.110Z,42.25
2022-09-01T20:16:50.369Z,42.18
2022-09-01T20:19:41.636Z,42.43
2022-09-01T20:22:31.324Z,42.51
2022-09-01T20:25:17.612Z,42.93
2022-09-01T20:28:12.878Z,42.93
2022-09-01T20:30:50.682Z,43.07
2022-09-01T20:34:10.624Z,42.87
2022-09-01T20:37:06.248Z,43.09
2022-09-01T20:39:55.889Z,42.97
2022-09-01T20:42:43.864Z,43.15
2022-09-01T20:45:22.773Z,43.48
2022-09-01T20:48:02.690Z,43.30
2022-09-01T20:50:43.163Z,43.44
2022-09-01T20:53:32.285Z,43.55
2022-09-01T20:56:19.377Z,44.00
2022-09-01T20:59:00.931Z,44.25
2022-09-01T21:01:42.720Z,43.98
2022-09-01T21:04:19.848Z,44.36
2022-09-01T21:08:07.936Z,44.68
2022-09-01T21:10:58.660Z,44.58
2022-09-01T21:13:45.398Z,44.87
2022-09-01T21:16:31.253Z,45.04
2022-09-01T21:19:20.700Z,44.87
2022-09-01T21:22:14.485Z,45.18
2022-09-01T21:24:44.086Z,45.22
2022-09-01T21:27:24.623Z,45.55
2022-09-01T21:30:05.695Z,45.52
2022-09-01T21:32:34.504Z,45.76
2022-09-01T21:35:06.934Z,45.92
2022-09-01T21:37:34.551Z,45.93
2022-09-01T21:40:02.351Z,46.36
2022-09-01T21:42:36.127Z,46.13
2022-09-01T21:45:06.559Z,46.20
2022-09-01T21:47:34.246Z,46.50
2022-09-01T21:50:01.816Z,46.38
2022-09-01T21:52:41.688Z,46.42
2022-09-01T21:55:11.558Z,46.65
2022-09-01T21:57:40.304Z,46.87
2022-09-01T22:00:17.477Z,46.86
2022-09-01T22:02:47.345Z,46.77
2022-09-01T22:05:16.587Z,47.08
2022-09-01T22:07:46.844Z,47.08
2022-09-01T22:10:19.189Z,47.11
2022-09-01T22:12:50.397Z,47.32
2022-09-01T22:15:22.398Z,47.49
2022-09-01T22:17:52.942Z,47.66
2022-09-01T22:20:23.560Z,48.33
2022-09-01T22:22:54.952Z,48.86
2022-09-01T22:25:24.111Z,49.38
2022-09-01T22:27:52.894Z,49.59
2022-09-01T22:30:21.783Z,49.65
2022-09-01T22:32:51.145Z,50.36
2022-09-01T22:35:20.944Z,50.66
2022-09-01T22:37:49.848Z,50.22
2022-09-01T22:40:18.894Z,50.86
2022-09-01T22:42:47.753Z,50.20
2022-09-01T22:45:16.583Z,50.76
2022-09-01T22:47:45.232Z,51.34
2022-09-01T22:50:14.179Z,52.17
2022-09-01T22:52:43.964Z,52.28
2022-09-01T22:55:13.891Z,51.81
2022-09-01T22:59:24.835Z,52.40
2022-09-01T23:01:52.704Z,52.90
2022-09-01T23:04:20.898Z,52.77
2022-09-01T23:06:53.563Z,52.66
2022-09-01T23:09:21.265Z,52.39
2022-09-01T23:11:50.109Z,53.16
2022-09-01T23:14:18.191Z,53.26
2022-09-01T23:16:46.747Z,53.46
2022-09-01T23:19:20.606Z,53.56
2022-09-01T23:21:48.442Z,53.47
2022-09-01T23:24:15.978Z,54.17
2022-09-01T23:26:47.910Z,54.15
2022-09-01T23:29:15.952Z,53.84
2022-09-01T23:31:43.822Z,54.10
2022-09-01T23:34:12.824Z,53.84
2022-09-01T23:36:42.011Z,54.12
2022-09-01T23:39:09.380Z,54.40
2022-09-01T23:41:37.501Z,55.29
2022-09-01T23:44:10.624Z,54.80
2022-09-01T23:46:44.626Z,55.22
2022-09-01T23:49:14.121Z,55.56
2022-09-01T23:51:41.783Z,56.01
2022-09-01T23:54:10.047Z,56.09
2022-09-01T23:56:37.954Z,56.36
2022-09-01T23:59:06.680Z,57.13
